SVO weather

Sheremetyevo International Airport
Moscow, Moscow Oblast, Russia

Public forecast

Using degrees Celsius for public forecast. Weather courtesy of forecast.io.

Current aviation weather report (METAR) for Sheremetyevo International Airport

Retrieved 2019/10/17 02:30 UTC (8 minutes ago):

UUEE 170230Z 21005MPS CAVOK 09/07 Q1015 R88/190057 NOSIG

Aviation forecast (TAF) for Sheremetyevo International Airport

Retrieved 2019-10-17 03:25 UTC (0 seconds ago):

TAF UUEE 170156Z 1703/1803 20005MPS 9999 SCT020 TX16/1712Z TN08/1703Z TEMPO 1703/1709 FEW004 BKN011 BECMG 1714/1717 BKN011 TEMPO 1717/1803 -SHRA FEW004 SCT011CB BECMG 1721/1723 26005MPS